Time;durP1;ratioP1;P1;durP2;ratioP2;P2;SDS_P1;SDS_P2;PMS_P1;PMS_P2;Temp;Humidity;BMP_temperature;BMP_pressure;BME280_temperature;BME280_humidity;BME280_pressure;Samples;Min_cycle;Max_cycle;Signal;HPM_P1;HPM_P2
2023/03/07 00:02:16;;;;;;;10.63;5.68;;;12.70;78.80;;;;;;5343190;22;20073;-74
2023/03/07 00:04:45;;;;;;;9.93;6.20;;;12.70;78.40;;;;;;5032603;28;20084;-74
2023/03/07 00:07:11;;;;;;;9.95;5.57;;;12.60;78.30;;;;;;5033898;28;20030;-75
2023/03/07 00:09:37;;;;;;;9.60;5.35;;;12.60;78.60;;;;;;5039482;28;20026;-75
2023/03/07 00:12:03;;;;;;;8.63;5.50;;;12.60;78.70;;;;;;5039650;28;20018;-74
2023/03/07 00:14:29;;;;;;;10.02;5.65;;;12.50;78.70;;;;;;5036899;28;20028;-75
2023/03/07 00:16:54;;;;;;;10.20;5.43;;;12.50;78.80;;;;;;5033903;28;20029;-76
2023/03/07 00:19:20;;;;;;;9.35;5.20;;;12.50;78.70;;;;;;5032733;28;20350;-75
2023/03/07 00:21:46;;;;;;;9.25;5.47;;;12.50;79.30;;;;;;5032400;28;20062;-75
2023/03/07 00:24:12;;;;;;;8.02;5.35;;;12.50;79.30;;;;;;5032278;28;20018;-74
2023/03/07 00:26:38;;;;;;;8.68;5.13;;;12.50;79.10;;;;;;5032187;28;20109;-74
2023/03/07 00:29:06;;;;;;;7.55;5.40;;;12.50;79.20;;;;;;5030576;28;20112;-76
2023/03/07 00:31:33;;;;;;;10.65;5.78;;;12.50;79.70;;;;;;5032182;28;20029;-75
2023/03/07 00:33:58;;;;;;;8.40;4.90;;;12.40;79.70;;;;;;5032105;28;20029;-76
2023/03/07 00:36:26;;;;;;;8.20;5.25;;;12.40;79.80;;;;;;5031998;28;20469;-75
2023/03/07 00:38:52;;;;;;;10.88;5.50;;;12.40;80.00;;;;;;5031888;28;20096;-74
2023/03/07 00:41:21;;;;;;;9.68;5.30;;;12.40;80.30;;;;;;5031885;28;20037;-74
2023/03/07 00:43:47;;;;;;;11.80;5.32;;;12.40;80.40;;;;;;5031876;28;20060;-74
2023/03/07 00:46:14;;;;;;;8.93;5.25;;;12.40;80.40;;;;;;5032075;28;20032;-75
2023/03/07 00:48:40;;;;;;;8.15;5.25;;;12.30;80.80;;;;;;5034704;28;20108;-75
2023/03/07 00:51:09;;;;;;;7.97;4.80;;;12.30;81.00;;;;;;5035177;28;20053;-75
2023/03/07 00:53:35;;;;;;;10.02;4.82;;;12.20;81.60;;;;;;5035393;28;20033;-74
2023/03/07 00:56:06;;;;;;;7.03;4.22;;;12.30;81.90;;;;;;5035397;28;20022;-73
2023/03/07 00:58:34;;;;;;;5.55;2.83;;;12.20;82.00;;;;;;5035338;28;20022;-74
2023/03/07 01:01:01;;;;;;;5.47;2.53;;;12.30;81.90;;;;;;5035214;28;20033;-74
2023/03/07 01:03:27;;;;;;;5.43;2.83;;;12.30;81.40;;;;;;5035142;28;20042;-74
2023/03/07 01:05:53;;;;;;;6.25;2.60;;;12.30;81.00;;;;;;5035232;28;20064;-73
2023/03/07 01:08:20;;;;;;;5.22;2.50;;;12.40;80.90;;;;;;5035111;28;20044;-74
2023/03/07 01:10:50;;;;;;;8.70;2.80;;;12.30;80.40;;;;;;5034977;28;20053;-74
2023/03/07 01:13:17;;;;;;;7.55;2.97;;;12.40;80.40;;;;;;5035103;28;20026;-75
2023/03/07 01:15:43;;;;;;;6.70;2.92;;;12.30;80.20;;;;;;5034903;28;20091;-74
2023/03/07 01:18:09;;;;;;;8.40;3.08;;;12.40;80.40;;;;;;5034952;28;20026;-74
2023/03/07 01:20:38;;;;;;;8.02;3.45;;;12.40;80.30;;;;;;5035040;28;20489;-74
2023/03/07 01:23:04;;;;;;;6.65;3.15;;;12.40;80.20;;;;;;5034862;28;20022;-75
2023/03/07 01:25:30;;;;;;;6.22;3.60;;;12.40;80.20;;;;;;5034882;28;20025;-74
2023/03/07 01:27:56;;;;;;;6.78;3.67;;;12.40;80.50;;;;;;5033379;28;20132;-72
2023/03/07 01:30:22;;;;;;;5.80;3.33;;;12.40;80.50;;;;;;5034787;28;20030;-74
2023/03/07 01:32:57;;;;;;;9.15;4.05;;;12.40;81.40;;;;;;5034816;28;20025;-75
2023/03/07 01:35:23;;;;;;;7.05;4.13;;;12.40;81.30;;;;;;5034645;28;20022;-75
2023/03/07 01:37:50;;;;;;;8.23;4.28;;;12.40;81.40;;;;;;5033139;28;20109;-75
2023/03/07 01:40:17;;;;;;;6.00;3.63;;;12.40;81.50;;;;;;5034635;28;20045;-74
2023/03/07 01:42:42;;;;;;;10.70;3.97;;;12.30;81.60;;;;;;5032985;28;20024;-73
2023/03/07 01:45:11;;;;;;;8.05;3.60;;;12.40;82.00;;;;;;5034487;28;20025;-74
2023/03/07 01:47:37;;;;;;;5.82;3.17;;;12.30;82.20;;;;;;5034623;28;20399;-74
2023/03/07 01:50:07;;;;;;;6.55;3.35;;;12.30;82.00;;;;;;5034572;28;20026;-74
2023/03/07 01:52:43;;;;;;;5.80;3.35;;;12.30;81.80;;;;;;5034687;28;20152;-73
2023/03/07 01:55:16;;;;;;;5.95;3.33;;;12.20;82.30;;;;;;5034151;28;20033;-74
2023/03/07 01:57:45;;;;;;;9.45;3.40;;;12.20;81.90;;;;;;5034412;28;20036;-75
2023/03/07 02:00:17;;;;;;;5.72;3.40;;;12.30;82.10;;;;;;5034193;28;20064;-74
2023/03/07 02:02:48;;;;;;;7.88;3.00;;;12.30;82.10;;;;;;5033999;28;20172;-74
2023/03/07 02:05:31;;;;;;;5.68;3.10;;;12.20;82.10;;;;;;5033983;28;20030;-73
2023/03/07 02:08:00;;;;;;;8.18;3.28;;;12.20;82.30;;;;;;5033894;28;20025;-73
2023/03/07 02:10:26;;;;;;;6.22;3.00;;;12.20;82.00;;;;;;5034336;28;20030;-74
2023/03/07 02:12:53;;;;;;;5.00;2.70;;;12.30;82.00;;;;;;5034044;28;20031;-74
2023/03/07 02:15:18;;;;;;;6.78;2.85;;;12.20;81.80;;;;;;5033832;28;20032;-73
2023/03/07 02:17:45;;;;;;;4.80;2.75;;;12.20;81.80;;;;;;5033699;28;20021;-74
2023/03/07 02:20:26;;;;;;;6.97;2.80;;;12.20;81.50;;;;;;5033968;28;20034;-73
2023/03/07 02:22:53;;;;;;;5.35;2.60;;;12.30;81.60;;;;;;5034078;28;20032;-75
2023/03/07 02:25:23;;;;;;;6.32;3.53;;;12.30;81.40;;;;;;5033845;28;20021;-74
2023/03/07 02:27:51;;;;;;;5.60;3.40;;;12.30;81.40;;;;;;5033515;28;20381;-74
2023/03/07 02:30:18;;;;;;;5.22;3.42;;;12.20;81.50;;;;;;5033400;28;20018;-74
2023/03/07 02:32:44;;;;;;;7.50;3.40;;;12.20;82.30;;;;;;5033601;28;20031;-74
2023/03/07 02:35:24;;;;;;;6.30;3.35;;;12.20;82.20;;;;;;5033704;28;20105;-74
2023/03/07 02:38:00;;;;;;;8.25;3.50;;;12.20;82.60;;;;;;5033574;28;20034;-74
2023/03/07 02:40:29;;;;;;;6.93;3.33;;;12.20;82.20;;;;;;5033337;28;20029;-75
2023/03/07 02:42:56;;;;;;;8.00;3.67;;;12.10;82.60;;;;;;5032211;28;20022;-74
2023/03/07 02:45:22;;;;;;;7.68;3.13;;;12.10;83.00;;;;;;5033447;28;20409;-73
2023/03/07 02:47:48;;;;;;;6.43;3.53;;;12.10;83.50;;;;;;5033361;28;20017;-73
2023/03/07 02:50:14;;;;;;;5.90;3.30;;;12.10;83.40;;;;;;5033299;28;20461;-75
2023/03/07 02:52:40;;;;;;;7.30;4.03;;;12.10;83.40;;;;;;5031844;28;20470;-74
2023/03/07 02:55:07;;;;;;;6.10;3.58;;;12.10;83.60;;;;;;5033144;28;20144;-73
2023/03/07 02:57:34;;;;;;;7.97;4.13;;;12.00;83.80;;;;;;5031976;28;20021;-74
2023/03/07 03:00:01;;;;;;;8.60;4.05;;;12.00;83.80;;;;;;5033235;28;20033;-73
2023/03/07 03:02:26;;;;;;;7.60;4.18;;;12.00;84.30;;;;;;5032789;28;20062;-75
2023/03/07 03:04:52;;;;;;;6.95;3.95;;;12.00;84.10;;;;;;5032996;28;20026;-74
2023/03/07 03:07:18;;;;;;;7.32;4.35;;;12.00;84.40;;;;;;5032717;28;20033;-74
2023/03/07 03:09:43;;;;;;;6.32;3.70;;;12.00;85.10;;;;;;5033026;28;20025;-75
2023/03/07 03:12:09;;;;;;;6.95;3.50;;;11.90;84.60;;;;;;5032840;28;20448;-75
2023/03/07 03:14:35;;;;;;;5.97;3.35;;;11.90;84.40;;;;;;5033045;28;20025;-73
2023/03/07 03:17:00;;;;;;;11.23;3.00;;;11.90;84.90;;;;;;5032422;28;20481;-74
2023/03/07 03:19:27;;;;;;;6.68;3.50;;;11.90;85.30;;;;;;5032779;28;20117;-74
2023/03/07 03:21:53;;;;;;;6.50;3.15;;;12.00;84.90;;;;;;5032524;28;20525;-73
2023/03/07 03:24:19;;;;;;;5.88;2.83;;;12.00;84.50;;;;;;5032989;28;20049;-74
2023/03/07 03:26:44;;;;;;;7.15;3.00;;;12.00;84.40;;;;;;5032757;28;20036;-74
2023/03/07 03:29:10;;;;;;;6.43;2.50;;;12.00;84.40;;;;;;5032478;28;20131;-74
2023/03/07 03:31:36;;;;;;;4.28;2.30;;;11.90;84.10;;;;;;5031260;28;20599;-73
2023/03/07 03:34:04;;;;;;;4.88;2.65;;;11.90;84.20;;;;;;5032834;28;20389;-75
2023/03/07 03:36:29;;;;;;;5.40;2.70;;;11.80;84.50;;;;;;5032664;28;20033;-75
2023/03/07 03:38:57;;;;;;;5.30;2.50;;;11.80;84.70;;;;;;5037163;28;20025;-75
2023/03/07 03:41:23;;;;;;;5.35;2.20;;;11.80;85.10;;;;;;5038451;28;20029;-74
2023/03/07 03:43:50;;;;;;;4.28;2.40;;;11.80;85.10;;;;;;5042013;28;20026;-74
2023/03/07 03:46:18;;;;;;;4.72;2.08;;;11.80;85.10;;;;;;5038515;28;20025;-74
2023/03/07 03:48:49;;;;;;;6.00;2.60;;;11.70;84.80;;;;;;5032665;28;20428;-74
2023/03/07 03:51:14;;;;;;;4.35;2.10;;;11.70;85.00;;;;;;5031013;28;20477;-73
2023/03/07 03:53:40;;;;;;;6.32;2.45;;;11.70;84.80;;;;;;5032301;28;20096;-75
2023/03/07 03:56:12;;;;;;;5.30;2.40;;;11.70;84.80;;;;;;5032548;28;20509;-74
2023/03/07 03:58:39;;;;;;;4.97;2.38;;;11.70;85.10;;;;;;5032469;28;20052;-74
2023/03/07 04:01:06;;;;;;;6.28;2.65;;;11.70;85.40;;;;;;5032027;28;20033;-74
2023/03/07 04:03:37;;;;;;;5.07;2.33;;;11.70;85.50;;;;;;5032320;28;20529;-74
2023/03/07 04:06:08;;;;;;;5.93;2.50;;;11.70;85.80;;;;;;5032163;28;20084;-73
2023/03/07 04:08:36;;;;;;;6.25;2.83;;;11.70;85.10;;;;;;5032191;28;20032;-73
2023/03/07 04:11:03;;;;;;;7.28;2.40;;;11.70;85.70;;;;;;5032313;28;20034;-73
2023/03/07 04:13:30;;;;;;;5.68;2.80;;;11.60;85.70;;;;;;5032262;28;20024;-73
2023/03/07 04:15:55;;;;;;;5.88;2.97;;;11.60;85.90;;;;;;5032217;28;20038;-74
2023/03/07 04:18:22;;;;;;;5.45;2.65;;;11.60;85.70;;;;;;5031683;28;20022;-74
2023/03/07 04:20:49;;;;;;;5.40;2.65;;;11.60;86.00;;;;;;5031905;28;20064;-74
2023/03/07 04:23:16;;;;;;;5.65;2.78;;;11.50;85.70;;;;;;5034294;28;20036;-72
2023/03/07 04:25:49;;;;;;;7.55;3.15;;;11.50;85.80;;;;;;5035460;28;20438;-74
2023/03/07 04:28:16;;;;;;;7.80;3.20;;;11.50;85.90;;;;;;5036131;28;20091;-74
2023/03/07 04:30:43;;;;;;;5.38;2.85;;;11.60;85.80;;;;;;5035670;28;20018;-74
2023/03/07 04:33:08;;;;;;;8.15;2.85;;;11.60;85.70;;;;;;5035693;28;20076;-74
2023/03/07 04:35:34;;;;;;;6.57;3.30;;;11.60;85.70;;;;;;5035578;28;20427;-74
2023/03/07 04:38:00;;;;;;;7.03;2.95;;;11.60;85.60;;;;;;5035563;28;20044;-74
2023/03/07 04:40:25;;;;;;;6.53;2.90;;;11.60;86.20;;;;;;5035521;28;20033;-73
2023/03/07 04:42:51;;;;;;;6.55;3.00;;;11.60;85.80;;;;;;5035448;28;20392;-73
2023/03/07 04:45:17;;;;;;;4.72;2.75;;;11.60;85.70;;;;;;5035446;28;20140;-74
2023/03/07 04:47:42;;;;;;;6.88;3.00;;;11.60;85.70;;;;;;5035477;28;20032;-73
2023/03/07 04:50:08;;;;;;;4.50;2.75;;;11.60;85.60;;;;;;5035290;28;20032;-73
2023/03/07 04:52:34;;;;;;;6.28;3.00;;;11.60;85.60;;;;;;5035278;28;20025;-74
2023/03/07 04:55:00;;;;;;;5.28;3.40;;;11.50;85.90;;;;;;5035120;28;20029;-74
2023/03/07 04:57:26;;;;;;;8.13;2.97;;;11.50;86.20;;;;;;5035320;28;20029;-74
2023/03/07 04:59:51;;;;;;;7.53;3.30;;;11.50;86.20;;;;;;5035110;28;20101;-73
2023/03/07 05:02:17;;;;;;;5.80;3.00;;;11.40;86.20;;;;;;5035362;28;20412;-74
2023/03/07 05:04:43;;;;;;;7.43;3.45;;;11.40;86.50;;;;;;5034928;28;20021;-73
2023/03/07 05:07:09;;;;;;;7.00;3.35;;;11.40;86.60;;;;;;5035250;28;20109;-74
2023/03/07 05:09:35;;;;;;;5.90;3.40;;;11.30;86.70;;;;;;5034996;28;20465;-74
2023/03/07 05:12:00;;;;;;;6.50;3.72;;;11.30;87.00;;;;;;5034942;28;20071;-74
2023/03/07 05:14:26;;;;;;;7.20;3.30;;;11.30;87.00;;;;;;5034857;28;20040;-74
2023/03/07 05:16:52;;;;;;;6.10;3.28;;;11.30;87.20;;;;;;5035046;28;20104;-73
2023/03/07 05:19:17;;;;;;;7.78;3.25;;;11.40;87.40;;;;;;5034662;28;20100;-73
2023/03/07 05:21:43;;;;;;;7.10;3.60;;;11.40;87.30;;;;;;5034659;28;20041;-72
2023/03/07 05:24:09;;;;;;;7.20;3.95;;;11.40;87.40;;;;;;5034865;28;20104;-73
2023/03/07 05:26:35;;;;;;;7.72;3.00;;;11.40;87.20;;;;;;5034849;28;20033;-75
2023/03/07 05:29:01;;;;;;;8.40;3.70;;;11.50;87.10;;;;;;5034658;28;20105;-74
2023/03/07 05:31:27;;;;;;;7.15;3.58;;;11.50;87.20;;;;;;5034568;28;20068;-73
2023/03/07 05:33:53;;;;;;;7.05;3.03;;;11.50;87.40;;;;;;5034475;28;20055;-73
2023/03/07 05:36:18;;;;;;;9.85;3.85;;;11.50;87.60;;;;;;5034834;28;20028;-74
2023/03/07 05:38:44;;;;;;;8.55;4.13;;;11.50;87.50;;;;;;5034751;28;20029;-74
2023/03/07 05:41:10;;;;;;;6.05;3.30;;;11.50;87.40;;;;;;5034547;28;20026;-75
2023/03/07 05:43:35;;;;;;;7.35;3.85;;;11.60;87.40;;;;;;5034721;28;20471;-75
2023/03/07 05:46:01;;;;;;;7.88;3.70;;;11.60;87.40;;;;;;5035141;28;20033;-73
2023/03/07 05:48:27;;;;;;;9.02;4.45;;;11.60;87.50;;;;;;5034952;28;20032;-74
2023/03/07 05:50:53;;;;;;;10.13;4.13;;;11.60;87.50;;;;;;5034467;28;20421;-74
2023/03/07 05:53:19;;;;;;;8.52;4.25;;;11.50;87.80;;;;;;5034718;28;20099;-74
2023/03/07 05:55:44;;;;;;;9.63;4.32;;;11.50;87.90;;;;;;5034674;28;20080;-74
2023/03/07 05:58:10;;;;;;;8.48;3.90;;;11.50;88.00;;;;;;5034043;28;20021;-77
2023/03/07 06:00:36;;;;;;;9.73;4.30;;;11.50;87.90;;;;;;5033998;28;20481;-74
2023/03/07 06:03:03;;;;;;;9.85;4.15;;;11.60;88.10;;;;;;5033989;28;20129;-75
2023/03/07 06:05:28;;;;;;;7.72;4.15;;;11.60;88.00;;;;;;5034219;28;20526;-75
2023/03/07 06:07:54;;;;;;;9.43;4.78;;;11.60;87.50;;;;;;5034008;28;20109;-75
2023/03/07 06:10:20;;;;;;;8.38;4.40;;;11.60;87.60;;;;;;5033646;28;20100;-73
2023/03/07 06:12:50;;;;;;;9.65;4.50;;;11.60;87.80;;;;;;5033672;28;20029;-74
2023/03/07 06:15:15;;;;;;;10.73;4.43;;;11.60;88.00;;;;;;5032496;28;20108;-73
2023/03/07 06:17:41;;;;;;;11.48;5.10;;;11.60;88.20;;;;;;5033886;28;20121;-74
2023/03/07 06:20:08;;;;;;;10.18;5.28;;;11.60;88.20;;;;;;5033704;28;20052;-74
2023/03/07 06:22:36;;;;;;;9.02;4.72;;;11.60;87.80;;;;;;5033778;28;20021;-73
2023/03/07 06:25:03;;;;;;;11.13;5.38;;;11.60;88.40;;;;;;5033326;28;20418;-74
2023/03/07 06:27:32;;;;;;;9.35;5.18;;;11.60;88.50;;;;;;5033488;28;20022;-75
2023/03/07 06:29:58;;;;;;;8.23;5.20;;;11.60;88.50;;;;;;5033198;28;20021;-74
2023/03/07 06:32:23;;;;;;;9.65;5.00;;;11.70;88.70;;;;;;5034177;28;20028;-74
2023/03/07 06:34:49;;;;;;;9.98;5.78;;;11.80;88.50;;;;;;5033606;28;20036;-74
2023/03/07 06:37:15;;;;;;;8.68;5.03;;;11.80;88.70;;;;;;5033553;28;20500;-74
2023/03/07 06:39:41;;;;;;;9.32;5.15;;;11.80;88.10;;;;;;5033870;28;20029;-74
2023/03/07 06:42:07;;;;;;;13.90;5.68;;;11.90;88.10;;;;;;5033978;28;20033;-74
2023/03/07 06:44:33;;;;;;;15.82;6.35;;;11.90;88.10;;;;;;5033334;28;20488;-75
2023/03/07 06:46:59;;;;;;;11.07;5.78;;;12.00;87.80;;;;;;5032272;28;20116;-73
2023/03/07 06:49:24;;;;;;;9.68;5.32;;;12.20;87.60;;;;;;5033674;28;20389;-74
2023/03/07 06:51:50;;;;;;;12.48;5.85;;;12.30;87.90;;;;;;5033163;28;20091;-73
2023/03/07 06:54:16;;;;;;;12.98;5.55;;;12.50;87.00;;;;;;5033614;28;20109;-73
2023/03/07 06:56:41;;;;;;;11.43;6.28;;;12.60;86.70;;;;;;5033406;28;20045;-74
2023/03/07 06:59:07;;;;;;;10.13;5.65;;;12.80;86.50;;;;;;5044320;28;20018;-75
2023/03/07 07:01:34;;;;;;;13.65;6.35;;;13.00;86.00;;;;;;5036671;28;20056;-74
2023/03/07 07:04:00;;;;;;;12.77;6.38;;;13.20;85.60;;;;;;5033912;28;20508;-73
2023/03/07 07:06:26;;;;;;;12.43;6.10;;;13.40;85.00;;;;;;5033393;28;20030;-74
2023/03/07 07:08:58;;;;;;;13.25;6.10;;;13.40;84.40;;;;;;5033786;28;20018;-75
2023/03/07 07:11:25;;;;;;;13.68;5.90;;;13.50;84.50;;;;;;5032406;28;20014;-74
2023/03/07 07:13:51;;;;;;;14.02;6.53;;;13.60;84.20;;;;;;5032420;28;20125;-74
2023/03/07 07:16:17;;;;;;;10.70;5.40;;;13.70;84.20;;;;;;5032546;28;20385;-74
2023/03/07 07:18:44;;;;;;;11.60;5.82;;;13.80;84.20;;;;;;5032697;28;20040;-74
2023/03/07 07:21:10;;;;;;;14.50;5.80;;;13.90;83.90;;;;;;5032487;28;20397;-75
2023/03/07 07:23:36;;;;;;;10.50;6.07;;;14.00;83.70;;;;;;5032395;28;20022;-73
2023/03/07 07:26:01;;;;;;;11.18;5.55;;;14.00;83.30;;;;;;5032269;28;20099;-76
2023/03/07 07:28:28;;;;;;;12.93;5.57;;;14.00;82.70;;;;;;5031219;28;20108;-73
2023/03/07 07:30:53;;;;;;;12.80;5.32;;;14.10;82.30;;;;;;5032496;28;20425;-75
2023/03/07 07:33:19;;;;;;;13.48;5.43;;;14.10;82.00;;;;;;5032373;28;20022;-75
2023/03/07 07:35:45;;;;;;;10.13;5.50;;;14.20;81.80;;;;;;5032422;28;20057;-74
2023/03/07 07:38:12;;;;;;;12.32;5.50;;;14.30;81.60;;;;;;5031939;28;20472;-74
2023/03/07 07:40:39;;;;;;;14.95;6.78;;;14.40;80.90;;;;;;5032164;28;20084;-74
2023/03/07 07:43:04;;;;;;;13.35;6.13;;;14.50;80.60;;;;;;5032264;28;20362;-75
2023/03/07 07:45:30;;;;;;;12.52;5.65;;;14.60;80.60;;;;;;5030543;28;20030;-75
2023/03/07 07:47:56;;;;;;;12.35;5.07;;;14.60;80.30;;;;;;5032085;28;20045;-75
2023/03/07 07:50:22;;;;;;;16.98;5.63;;;14.70;79.50;;;;;;5031908;28;20362;-75
2023/03/07 07:52:48;;;;;;;14.20;5.82;;;14.70;79.00;;;;;;5032069;28;20435;-74
2023/03/07 07:55:14;;;;;;;18.40;6.63;;;14.80;79.00;;;;;;5030839;28;20124;-74
2023/03/07 07:57:41;;;;;;;14.20;5.95;;;14.80;78.90;;;;;;5035136;28;20032;-75
2023/03/07 08:00:10;;;;;;;16.70;5.80;;;14.90;78.50;;;;;;5034411;28;20029;-74
2023/03/07 08:02:35;;;;;;;12.38;4.80;;;14.90;77.80;;;;;;5035899;28;20045;-75
2023/03/07 08:05:01;;;;;;;11.52;5.28;;;14.90;77.20;;;;;;5036149;28;20044;-75
2023/03/07 08:07:27;;;;;;;12.10;5.40;;;14.90;76.80;;;;;;5036250;28;20032;-74
2023/03/07 08:09:53;;;;;;;11.48;5.20;;;15.00;76.90;;;;;;5033940;28;20473;-75
2023/03/07 08:12:18;;;;;;;13.15;5.20;;;15.10;76.60;;;;;;5019649;28;20041;-79
2023/03/07 08:14:44;;;;;;;18.50;5.63;;;15.10;76.30;;;;;;5036022;28;20021;-72
2023/03/07 08:17:10;;;;;;;16.98;5.32;;;15.20;75.90;;;;;;5036191;28;20469;-76
2023/03/07 08:19:35;;;;;;;14.93;5.80;;;15.20;75.40;;;;;;5036413;28;20090;-79
2023/03/07 08:22:01;;;;;;;13.98;5.13;;;15.30;74.50;;;;;;5030579;28;20239;-78
2023/03/07 08:24:28;;;;;;;12.07;5.40;;;15.40;74.40;;;;;;5034688;28;20022;-76
2023/03/07 08:26:53;;;;;;;11.63;4.78;;;15.50;73.80;;;;;;5035863;28;20244;-80
2023/03/07 08:29:19;;;;;;;16.52;5.00;;;15.60;73.20;;;;;;5036133;28;20643;-78
2023/03/07 08:31:45;;;;;;;10.75;4.53;;;15.80;72.40;;;;;;5032465;28;20587;-80
2023/03/07 08:34:11;;;;;;;17.70;5.43;;;15.80;72.30;;;;;;5037594;28;20028;-82
2023/03/07 08:36:38;;;;;;;18.08;5.78;;;15.80;71.90;;;;;;5035961;28;20426;-77
2023/03/07 08:39:04;;;;;;;11.60;4.75;;;15.90;71.90;;;;;;5035533;28;20039;-75
2023/03/07 08:41:30;;;;;;;18.65;5.05;;;15.80;71.90;;;;;;5033181;28;20100;-74
2023/03/07 08:43:56;;;;;;;15.23;5.32;;;15.70;71.20;;;;;;5032583;28;20052;-75
2023/03/07 08:46:22;;;;;;;16.23;4.95;;;15.60;71.40;;;;;;5034119;28;20504;-74
2023/03/07 08:48:48;;;;;;;13.07;4.80;;;15.50;71.50;;;;;;5035603;28;20104;-74
2023/03/07 08:51:16;;;;;;;14.15;5.22;;;15.40;71.40;;;;;;5034124;28;20414;-73
2023/03/07 08:53:43;;;;;;;13.65;5.93;;;15.40;71.60;;;;;;5032431;28;20029;-75
2023/03/07 08:56:11;;;;;;;16.08;5.80;;;15.30;71.60;;;;;;5035499;28;20501;-76
2023/03/07 08:58:37;;;;;;;13.93;5.57;;;15.30;71.80;;;;;;5035744;28;20034;-76
2023/03/07 09:01:05;;;;;;;13.55;5.28;;;15.30;71.50;;;;;;5035302;28;20088;-82
2023/03/07 09:03:31;;;;;;;19.05;5.60;;;15.30;71.10;;;;;;5031445;28;20050;-72
2023/03/07 09:05:56;;;;;;;13.27;4.97;;;15.40;71.10;;;;;;5035483;28;20022;-77
2023/03/07 09:08:22;;;;;;;14.73;5.53;;;15.40;71.00;;;;;;5034953;28;20516;-77
2023/03/07 09:10:48;;;;;;;21.05;5.75;;;15.40;71.00;;;;;;5035825;28;20389;-77
2023/03/07 09:13:14;;;;;;;21.60;6.13;;;15.50;70.50;;;;;;5030473;28;20026;-79
2023/03/07 09:15:40;;;;;;;15.38;5.53;;;15.60;70.20;;;;;;5035472;28;20028;-78
2023/03/07 09:18:07;;;;;;;16.48;5.13;;;15.70;69.80;;;;;;5035384;28;20115;-81
2023/03/07 09:20:33;;;;;;;12.38;4.65;;;15.80;69.70;;;;;;5035428;28;20403;-78
2023/03/07 09:22:59;;;;;;;16.92;6.78;;;15.80;69.30;;;;;;5029855;28;20503;-80
2023/03/07 09:25:25;;;;;;;17.75;5.55;;;15.90;69.20;;;;;;5035083;28;20025;-78
2023/03/07 09:27:53;;;;;;;14.68;5.30;;;16.00;69.00;;;;;;5035326;28;20068;-84
2023/03/07 09:30:18;;;;;;;25.25;6.13;;;16.10;68.30;;;;;;5035438;28;20095;-81
2023/03/07 09:32:44;;;;;;;16.48;5.53;;;16.20;68.10;;;;;;5029905;28;20469;-78
2023/03/07 09:35:10;;;;;;;20.48;6.38;;;16.30;68.20;;;;;;5035322;28;20025;-78
2023/03/07 09:37:36;;;;;;;16.63;5.80;;;16.40;68.00;;;;;;5035032;28;20018;-79
2023/03/07 09:40:07;;;;;;;20.45;5.47;;;16.40;67.40;;;;;;5035653;28;20013;-79
2023/03/07 09:43:04;;;;;;;14.75;5.82;;;16.50;67.60;;;;;;5031146;28;20446;-80
2023/03/07 09:46:01;;;;;;;11.50;5.40;;;16.50;67.90;;;;;;5020142;28;20037;-84
2023/03/07 09:48:36;;;;;;;14.07;5.53;;;16.50;67.60;;;;;;5035880;28;20037;-79
2023/03/07 09:51:29;;;;;;;17.95;6.38;;;16.50;67.20;;;;;;5034819;28;20132;-80
2023/03/07 09:54:05;;;;;;;14.30;5.73;;;16.30;67.20;;;;;;5031018;28;20030;-80
2023/03/07 09:56:45;;;;;;;14.32;5.70;;;16.30;67.10;;;;;;5034953;28;20458;-82
2023/03/07 09:59:40;;;;;;;14.88;5.90;;;16.20;66.90;;;;;;5038262;28;20022;-78
2023/03/07 10:02:33;;;;;;;16.40;5.15;;;16.20;66.90;;;;;;5018656;28;20053;-78
2023/03/07 10:05:17;;;;;;;17.58;5.65;;;16.30;67.60;;;;;;5054036;28;20032;-79
2023/03/07 10:07:43;;;;;;;12.35;5.53;;;16.40;67.70;;;;;;5056572;28;20056;-78
2023/03/07 10:10:22;;;;;;;16.13;5.72;;;16.50;66.40;;;;;;5036092;28;20021;-76
2023/03/07 10:13:14;;;;;;;12.43;5.18;;;16.70;67.10;;;;;;5029061;28;20147;-77
2023/03/07 10:15:52;;;;;;;15.45;6.78;;;16.80;66.30;;;;;;5032913;28;20056;-77
2023/03/07 10:18:45;;;;;;;21.95;6.63;;;16.90;66.20;;;;;;5034476;28;20021;-78
2023/03/07 10:21:47;;;;;;;16.90;5.78;;;17.00;66.60;;;;;;5031113;28;20104;-77
2023/03/07 10:24:41;;;;;;;13.38;6.57;;;17.00;66.30;;;;;;5032727;28;20037;-77
2023/03/07 10:27:07;;;;;;;;;;;17.10;66.40;;;;;;5034273;28;20064;-78
2023/03/07 10:29:49;;;;;;;16.23;6.75;;;17.00;64.90;;;;;;5034485;28;19909;-79
2023/03/07 10:32:38;;;;;;;16.00;6.45;;;17.00;66.60;;;;;;5028853;28;20025;-78
2023/03/07 10:35:10;;;;;;;19.80;6.25;;;17.00;66.80;;;;;;5034427;28;20021;-79
2023/03/07 10:37:55;;;;;;;23.35;6.78;;;16.80;66.00;;;;;;5036691;28;20434;-76
2023/03/07 10:40:39;;;;;;;14.75;5.95;;;16.70;66.40;;;;;;5032458;28;20133;-85
2023/03/07 10:43:05;;;;;;;14.15;6.35;;;16.80;65.90;;;;;;5030696;28;20029;-84
2023/03/07 10:45:32;;;;;;;11.65;5.90;;;17.00;66.30;;;;;;5033142;28;20512;-84
2023/03/07 10:48:13;;;;;;;14.00;6.78;;;17.20;65.20;;;;;;5033899;28;20056;-77
2023/03/07 10:50:57;;;;;;;18.38;7.00;;;17.30;65.10;;;;;;5033537;28;20021;-78
2023/03/07 10:53:26;;;;;;;19.38;5.95;;;17.40;65.10;;;;;;5029538;28;20032;-77
2023/03/07 10:55:52;;;;;;;18.73;7.28;;;17.30;65.00;;;;;;5033301;28;20076;-79
2023/03/07 10:58:26;;;;;;;19.20;7.10;;;17.40;65.10;;;;;;5033274;28;20027;-78
2023/03/07 11:01:05;;;;;;;13.15;6.63;;;17.40;65.10;;;;;;5032558;28;20033;-78
2023/03/07 11:03:43;;;;;;;20.10;6.28;;;17.50;65.30;;;;;;5029179;28;20077;-74
2023/03/07 11:06:27;;;;;;;14.18;5.78;;;17.50;64.40;;;;;;5032903;28;20396;-76
2023/03/07 11:08:54;;;;;;;14.40;5.13;;;17.70;63.60;;;;;;5032366;28;20029;-75
2023/03/07 11:11:29;;;;;;;15.13;5.80;;;17.70;63.20;;;;;;5029172;28;20474;-76
2023/03/07 11:14:12;;;;;;;17.42;6.80;;;17.70;63.00;;;;;;5030288;28;20029;-76
2023/03/07 11:16:58;;;;;;;14.40;6.53;;;17.60;62.80;;;;;;5032521;28;20028;-77
2023/03/07 11:19:41;;;;;;;12.32;5.43;;;17.50;63.20;;;;;;5031504;28;20036;-75
2023/03/07 11:22:24;;;;;;;12.07;5.10;;;17.40;62.70;;;;;;5025627;28;20643;-76
2023/03/07 11:24:56;;;;;;;13.93;5.18;;;17.40;63.00;;;;;;5032649;28;20065;-77
2023/03/07 11:27:25;;;;;;;20.75;6.63;;;17.50;62.80;;;;;;5032369;28;20021;-73
2023/03/07 11:30:18;;;;;;;14.60;5.90;;;17.50;62.70;;;;;;5032401;28;20029;-74
2023/03/07 11:32:57;;;;;;;15.10;5.90;;;17.60;62.30;;;;;;5026981;28;20139;-72
2023/03/07 11:35:47;;;;;;;14.00;5.72;;;17.60;62.60;;;;;;5031028;28;20283;-73
2023/03/07 11:38:59;;;;;;;11.80;4.78;;;17.60;62.60;;;;;;5031865;28;20121;-75
2023/03/07 11:41:29;;;;;;;16.58;5.95;;;17.70;62.50;;;;;;5001282;28;20103;-72
2023/03/07 11:44:18;;;;;;;26.25;6.55;;;17.90;62.40;;;;;;5029750;28;20041;-74
2023/03/07 11:47:14;;;;;;;12.77;5.47;;;17.90;61.60;;;;;;5032361;28;20450;-73
2023/03/07 11:50:23;;;;;;;20.80;7.22;;;17.70;61.90;;;;;;5032313;28;20022;-72
2023/03/07 11:53:01;;;;;;;15.30;6.20;;;17.50;62.30;;;;;;5016010;28;20056;-74
2023/03/07 11:55:33;;;;;;;16.15;6.10;;;17.40;62.80;;;;;;5032493;28;20070;-76
2023/03/07 11:58:29;;;;;;;18.15;5.82;;;17.20;63.10;;;;;;5032412;28;20068;-85
2023/03/07 12:00:58;;;;;;;16.67;5.90;;;17.20;63.30;;;;;;5032107;28;20508;-79
2023/03/07 12:03:49;;;;;;;19.25;6.40;;;17.30;63.30;;;;;;5028630;28;20517;-78
2023/03/07 12:06:21;;;;;;;17.65;5.57;;;17.50;62.50;;;;;;5034485;28;20029;-79
2023/03/07 12:08:59;;;;;;;16.30;5.45;;;17.70;62.40;;;;;;5033369;28;20056;-82
2023/03/07 12:11:57;;;;;;;15.52;5.85;;;17.90;61.80;;;;;;5030215;28;20040;-82
2023/03/07 12:14:35;;;;;;;15.90;7.22;;;18.10;61.60;;;;;;5030770;28;20037;-75
2023/03/07 12:17:12;;;;;;;15.48;6.03;;;18.40;61.60;;;;;;5032332;28;20049;-73
2023/03/07 12:20:05;;;;;;;15.85;6.88;;;18.60;61.10;;;;;;5032246;28;20501;-74
2023/03/07 12:22:51;;;;;;;14.75;6.47;;;18.70;60.70;;;;;;5027165;28;20026;-74
2023/03/07 12:25:23;;;;;;;12.80;6.05;;;18.80;61.10;;;;;;5033030;28;20025;-77
2023/03/07 12:28:04;;;;;;;19.38;6.80;;;18.70;59.80;;;;;;5032481;28;20112;-84
2023/03/07 12:30:51;;;;;;;14.73;6.97;;;18.60;60.90;;;;;;5032419;28;20383;-85
2023/03/07 12:33:22;;;;;;;16.83;5.30;;;18.70;60.50;;;;;;5028653;28;20120;-82
2023/03/07 12:35:54;;;;;;;13.93;5.60;;;18.70;58.90;;;;;;5032796;28;20052;-75
2023/03/07 12:38:34;;;;;;;15.40;6.03;;;18.80;58.90;;;;;;5032250;28;20478;-75
2023/03/07 12:41:08;;;;;;;14.20;5.60;;;19.00;58.80;;;;;;5031118;28;20033;-73
2023/03/07 12:43:41;;;;;;;18.45;5.88;;;19.00;58.60;;;;;;5029946;28;20041;-78
2023/03/07 12:46:33;;;;;;;16.42;5.88;;;19.00;58.10;;;;;;5036031;28;20104;-75
2023/03/07 12:49:11;;;;;;;16.15;5.28;;;19.00;58.20;;;;;;5035712;28;20034;-74
2023/03/07 12:51:42;;;;;;;49.97;12.15;;;19.20;58.80;;;;;;5031652;28;20044;-79
2023/03/07 12:54:28;;;;;;;16.08;6.53;;;19.30;58.50;;;;;;5033544;28;20188;-80
2023/03/07 12:57:00;;;;;;;18.08;6.03;;;19.30;58.50;;;;;;5035589;28;20049;-82
2023/03/07 12:59:28;;;;;;;23.65;6.40;;;19.10;58.00;;;;;;5037764;28;20033;-82